This is the latest recevied weather packets stored in our database for station/object K1KOF. If no packets are shown the sender has not sent any weather packets the latest 10 day(s).
| Time | Temp. | Humidity | Pressure | Rain* | Wind** | Luminosity | Snow |
|---|---|---|---|---|---|---|---|
| 1777831275 | 18.33° C | 49% | 1030 hPa | 0 mm | - | 766 W/m² | - |
| 1777829757 | 18.89° C | 51% | 1030 hPa | 0 mm | - | 738 W/m² | - |
| 1777829151 | 20° C | 47% | 1030.1 hPa | 0 mm | - | 778 W/m² | - |
| 1777827636 | 18.33° C | 51% | 1030.6 hPa | 0 mm | - | 617 W/m² | - |
| 1777827029 | 17.78° C | 52% | 1030.5 hPa | 0 mm | - | 553 W/m² | - |
| 1777821576 | 15.56° C | 60% | 1031.3 hPa | 0 mm | - | 517 W/m² | - |
| 1777819758 | 15° C | 63% | 1031.2 hPa | 0 mm | - | 428 W/m² | - |
| 1777819154 | 16.11° C | 67% | 1031 hPa | 0 mm | - | 593 W/m² | - |
| 1777818546 | 15.56° C | 66% | 1031 hPa | 0 mm | - | 625 W/m² | - |
| 1777816122 | 14.44° C | 73% | 1030.6 hPa | 0 mm | - | 505 W/m² | - |
| 1777814910 | 13.89° C | 75% | 1030.6 hPa | 0 mm | - | 368 W/m² | - |
| 1777811276 | 8.33° C | 99% | 1030.6 hPa | 0 mm | - | 43 W/m² | - |
| 1777810670 | 8.33° C | 99% | 1030.5 hPa | 0 mm | - | 42 W/m² | - |
| 1777810063 | 7.78° C | 99% | 1030.4 hPa | 0 mm | - | 38 W/m² | - |
| 1777809458 | 7.22° C | 99% | 1030.3 hPa | 0 mm | - | 37 W/m² | - |
| 1777809156 | 7.78° C | 99% | 1030.1 hPa | 0 mm | - | 37 W/m² | - |
| 1777808247 | 6.67° C | 99% | 1029.9 hPa | 0 mm | - | 29 W/m² | - |
| 1777807643 | 6.67° C | 99% | 1029.9 hPa | 0 mm | - | 26 W/m² | - |
| 1777807036 | 6.67° C | 99% | 1029.7 hPa | 0 mm | - | 21 W/m² | - |
| 1777806733 | 6.67° C | 99% | 1029.5 hPa | 0 mm | - | 18 W/m² | - |
| 1777806429 | 6.67° C | 99% | 1029.5 hPa | 0 mm | - | 16 W/m² | - |
| 1777806126 | 6.11° C | 99% | 1029.5 hPa | 0 mm | - | 12 W/m² | - |
| 1777804613 | 6.67° C | 99% | 1029.3 hPa | 0 mm | - | 0 W/m² | - |
| 1777804311 | 6.67° C | 99% | 1028.9 hPa | 0 mm | - | 0 W/m² | - |
| 1777804007 | 6.67° C | 99% | 1028.9 hPa | 0 mm | - | 0 W/m² | - |
* Rain latest hour (hover to see other rain measurements)
** Current wind speed in m/s (hover to see current wind gust speed)